x

Destruction Island, Wa (desw1) Weather Station

5:00 - Wed 30th Jul 2014 All times are PDT. -7 hours from GMT.

  • Wind
    15mph
  • Air Temp 53°f
  • Sea Pressure 1021.6mb
  • Destruction Island, Wa
  • Destruction Island, Wa

More Historic Weather Station data

Upgrade to MSW Pro to gain access to the past 30 days of data for over 8000 Wavebouys and Weather Stations around the globe.

Join Pro

Comparision Forecast

View Surf forecast
   
mer. 07/30 5:00 15
mph
1021.6mb 53f
4:00 13 14 mph 1021.5mb 53f
3:00 15
mph
1021.4mb 53f
2:00 18
mph
1021.4mb 54f
1:00 20 21 mph 1021.2mb 54f
12:00 21 22 mph 1020.9mb 54f
mar. 07/29 11:00 18
mph
1020.9mb 53f
10:00 24
mph
1021mb 54f
9:00 23 24 mph 1020.6mb 55f
8:00 25 26 mph 1020.6mb 55f
7:00 28 29 mph 1020.5mb 56f
6:00 28 29 mph 1020.6mb 56f
5:00 28
mph
1020.8mb 55f
4:00 28 29 mph 1021.2mb 55f
3:00 26 29 mph 1021.4mb 55f
2:00 28 30 mph 1021.5mb 56f
1:00 24 25 mph 1021.6mb 55f
12:00 24 25 mph 1021.9mb 55f
11:00 21 22 mph 1022.1mb 54f
10:00 16 17 mph 1022mb 55f
9:00 16
mph
1022mb 53f
8:00 22
mph
1021.5mb 53f
7:00 16 17 mph 1021.6mb 52f
6:00 20 21 mph 1021.1mb 53f
5:00 21
mph
1020.9mb 52f
4:00 21
mph
1020.7mb 52f
3:00 23
mph
1020.4mb 52f
2:00 22 23 mph 1020.3mb 52f
1:00 22
mph
1020.5mb 52f
12:00 20 21 mph 1020.6mb 51f
lun. 07/28 11:00 21 22 mph 1020.9mb 51f
10:00 24 25 mph 1020.6mb 53f
9:00 29 30 mph 1020.1mb 53f
8:00 30 32 mph 1019.6mb 53f
7:00 29 31 mph 1019.7mb 53f
6:00 30 31 mph 1019.8mb 53f
5:00 30 32 mph 1019.9mb 54f
4:00 25 28 mph 1020.3mb 54f
3:00 24 26 mph 1020.9mb 55f
2:00 20 22 mph 1021.2mb 55f
1:00 13 14 mph 1021.5mb 55f
12:00 17 18 mph 1021.3mb 54f
11:00 15 17 mph 1021mb 54f
10:00 14 15 mph 1020.9mb 53f
9:00 13 14 mph 1021.1mb 54f
8:00 9 10 mph 1021.1mb 54f
7:00 13 14 mph 1020.7mb 54f
6:00 13 14 mph 1020.6mb 54f
5:00 16 17 mph 1020.2mb 54f
4:00 18 20 mph 1020.1mb 55f
3:00 21 22 mph 1020.2mb 55f
2:00 21
mph
1020.3mb 56f
1:00 20
mph
1020.6mb 56f
12:00 20
mph
1020.7mb 56f
dim. 07/27 11:00 21
mph
1020.7mb 56f
10:00 22 23 mph 1020.8mb 56f
9:00 30 31 mph 1020.1mb 57f
8:00 32 36 mph 1019.6mb 58f
7:00 32 34 mph 1019.5mb 58f
6:00 36 38 mph 1019.4mb 58f
5:00 37 40 mph 1019.8mb 58f
4:00 34 36 mph 1020.2mb 58f
3:00 29 33 mph 1020.7mb 58f
2:00 25 29 mph 1021.4mb 58f
1:00 21 23 mph 1021.8mb 57f
12:00 23 26 mph 1022mb 57f
11:00 18 20 mph 1022.3mb 57f
10:00 18 20 mph 1022.4mb 57f
9:00 16
mph
1022.6mb 57f
8:00 16 17 mph 1022.8mb 56f
7:00 14
mph
1022.7mb 56f
6:00 16 17 mph 1022.5mb 56f
5:00 14 15 mph 1022.4mb 56f
4:00 13 14 mph 1022.4mb 56f
3:00 14 15 mph 1022.5mb 57f
2:00 22
mph
1022.4mb 57f
1:00 15 16 mph 1022.5mb 57f
12:00 15 16 mph 1022.4mb 57f
sam. 07/26 11:00 17
mph
1022.4mb 58f
10:00 21 22 mph 1022.3mb 59f
9:00 22 23 mph 1022mb 59f
8:00 25 26 mph 1021.8mb 59f
7:00 22 23 mph 1022mb 59f
6:00 24 25 mph 1022.1mb 60f
5:00 22 23 mph 1022.4mb 60f
4:00 22 24 mph 1022.4mb 60f
3:00 21 23 mph 1022.7mb 60f
2:00 16 18 mph 1022.9mb 60f